createdAt,value
2023-04-02T07:07:41.236Z,3.30
2023-04-02T07:10:09.388Z,3.30
2023-04-02T07:12:36.163Z,3.40
2023-04-02T07:15:03.849Z,3.40
2023-04-02T07:17:30.744Z,3.50
2023-04-02T07:19:57.574Z,3.60
2023-04-02T07:22:25.675Z,3.60
2023-04-02T07:24:52.518Z,3.70
2023-04-02T07:27:19.254Z,3.70
2023-04-02T07:29:46.077Z,3.80
2023-04-02T07:32:13.409Z,3.80
2023-04-02T07:34:41.528Z,3.90
2023-04-02T07:37:12.808Z,3.90
2023-04-02T07:39:40.694Z,4.00
2023-04-02T07:42:08.036Z,4.00
2023-04-02T07:44:34.855Z,4.10
2023-04-02T07:47:01.751Z,4.10
2023-04-02T07:49:28.696Z,4.10
2023-04-02T07:51:55.489Z,4.20
2023-04-02T07:54:22.284Z,4.20
2023-04-02T07:56:49.042Z,4.30
2023-04-02T07:59:15.822Z,4.30
2023-04-02T08:01:43.118Z,4.30
2023-04-02T08:04:21.283Z,4.40
2023-04-02T08:06:48.908Z,4.50
2023-04-02T08:09:16.918Z,4.60
2023-04-02T08:11:43.889Z,4.70
2023-04-02T08:14:11.183Z,4.80
2023-04-02T08:16:49.700Z,4.80
2023-04-02T08:19:16.627Z,4.90
2023-04-02T08:21:43.396Z,4.90
2023-04-02T08:24:10.312Z,4.90
2023-04-02T08:26:37.266Z,5.00
2023-04-02T08:29:04.229Z,5.00
2023-04-02T08:31:31.173Z,5.00
2023-04-02T08:34:01.261Z,5.10
2023-04-02T08:36:45.438Z,5.20
2023-04-02T08:39:17.782Z,5.20
2023-04-02T08:42:06.479Z,5.30
2023-04-02T08:45:21.164Z,5.40
2023-04-02T08:47:55.235Z,5.50
2023-04-02T08:50:57.183Z,5.70
2023-04-02T08:53:28.940Z,5.70
2023-04-02T08:56:17.664Z,5.80
2023-04-02T08:58:48.998Z,5.80
2023-04-02T09:01:16.111Z,5.80
2023-04-02T09:03:45.728Z,5.80
2023-04-02T09:06:17.952Z,5.80
2023-04-02T09:08:48.373Z,5.90
2023-04-02T09:11:21.610Z,6.00
2023-04-02T09:13:56.882Z,6.10
2023-04-02T09:16:55.034Z,6.30
2023-04-02T09:20:00.887Z,6.30
2023-04-02T09:22:30.096Z,6.30
2023-04-02T09:25:35.800Z,6.30
2023-04-02T09:35:57.870Z,6.70
2023-04-02T09:38:47.643Z,7.10
2023-04-02T09:44:41.250Z,6.90
2023-04-02T09:47:24.086Z,7.00
2023-04-02T09:49:51.745Z,7.00
2023-04-02T09:52:29.901Z,7.00
2023-04-02T09:55:31.043Z,7.00
2023-04-02T09:58:12.861Z,7.10
2023-04-02T10:00:42.186Z,7.30
2023-04-02T10:03:26.121Z,7.30
2023-04-02T10:06:13.185Z,7.40
2023-04-02T10:08:42.602Z,7.50
2023-04-02T10:11:25.341Z,7.60
2023-04-02T10:14:00.537Z,7.70
2023-04-02T10:16:42.437Z,7.70
2023-04-02T10:19:33.563Z,7.70
2023-04-02T10:22:03.248Z,7.60
2023-04-02T10:24:30.028Z,7.60
2023-04-02T10:27:33.566Z,7.60
2023-04-02T10:30:17.079Z,7.60
2023-04-02T10:32:55.982Z,7.80
2023-04-02T10:35:53.975Z,7.70
2023-04-02T10:38:45.435Z,7.60
2023-04-02T10:41:40.278Z,7.60
2023-04-02T10:44:25.541Z,7.70
2023-04-02T10:46:58.873Z,7.80
2023-04-02T10:49:41.164Z,7.70
2023-04-02T10:52:21.756Z,7.70
2023-04-02T10:54:53.649Z,7.70
2023-04-02T10:57:24.836Z,7.50
2023-04-02T11:00:06.123Z,7.50
2023-04-02T11:02:37.525Z,7.60
2023-04-02T11:05:13.934Z,7.80
2023-04-02T11:08:06.851Z,7.90
2023-04-02T11:10:39.706Z,8.10
2023-04-02T11:13:15.524Z,8.20
2023-04-02T11:15:42.422Z,8.20
2023-04-02T11:18:35.709Z,8.20
2023-04-02T11:21:08.107Z,8.20
2023-04-02T11:24:02.168Z,8.40
2023-04-02T11:26:38.630Z,8.50
2023-04-02T11:29:21.509Z,8.60
2023-04-02T11:31:50.349Z,8.50
2023-04-02T11:34:42.892Z,8.50
2023-04-02T11:37:41.252Z,8.60
2023-04-02T11:40:11.058Z,8.80
2023-04-02T11:42:40.796Z,8.80
2023-04-02T11:45:52.841Z,8.80
2023-04-02T11:48:20.076Z,8.80
2023-04-02T11:50:47.171Z,8.80
2023-04-02T11:53:17.401Z,8.90
2023-04-02T11:55:46.021Z,8.80
2023-04-02T11:58:34.502Z,8.80
2023-04-02T12:01:22.634Z,8.90
2023-04-02T12:04:07.906Z,8.90
2023-04-02T12:06:51.348Z,8.90
2023-04-02T12:09:24.314Z,8.90
2023-04-02T12:11:52.751Z,8.90
2023-04-02T12:14:45.739Z,8.90
2023-04-02T12:17:30.563Z,8.90
2023-04-02T12:19:58.589Z,8.90
2023-04-02T12:22:28.960Z,8.70
2023-04-02T12:25:20.166Z,8.60
2023-04-02T12:27:47.437Z,8.50
2023-04-02T12:30:18.795Z,8.40
2023-04-02T12:32:46.427Z,8.30
2023-04-02T12:35:34.361Z,8.60
2023-04-02T12:38:01.555Z,8.70
2023-04-02T12:40:28.895Z,8.80
2023-04-02T12:42:56.055Z,8.90
2023-04-02T12:45:29.765Z,9.00
2023-04-02T12:47:57.866Z,9.00
2023-04-02T12:50:24.943Z,9.00
2023-04-02T12:52:54.898Z,8.70
2023-04-02T12:55:26.347Z,8.60
2023-04-02T12:57:57.334Z,8.80
2023-04-02T13:00:27.276Z,9.00
2023-04-02T13:03:01.077Z,9.10
2023-04-02T13:06:00.892Z,9.40
2023-04-02T13:08:31.034Z,9.50
2023-04-02T13:10:59.979Z,9.60
2023-04-02T13:13:33.913Z,9.50
2023-04-02T13:16:05.067Z,9.60
2023-04-02T13:18:33.465Z,9.70
2023-04-02T13:21:28.561Z,9.50
2023-04-02T13:23:55.900Z,9.40
2023-04-02T13:26:26.224Z,9.30
2023-04-02T13:29:00.618Z,9.30
2023-04-02T13:31:29.524Z,9.40
2023-04-02T13:33:56.572Z,9.30
2023-04-02T13:36:25.760Z,9.20
2023-04-02T13:38:52.650Z,9.10
2023-04-02T13:41:30.655Z,9.00
2023-04-02T13:44:02.440Z,8.90
2023-04-02T13:46:31.653Z,8.90
2023-04-02T13:48:58.682Z,8.50
2023-04-02T13:51:37.781Z,8.50
2023-04-02T13:54:09.189Z,8.50
2023-04-02T13:56:36.201Z,8.60
2023-04-02T13:59:03.068Z,8.80
2023-04-02T14:01:31.151Z,8.70
2023-04-02T14:03:58.208Z,8.50
2023-04-02T14:06:56.118Z,8.20
2023-04-02T14:09:32.365Z,8.00
2023-04-02T14:12:08.051Z,8.20
2023-04-02T14:14:38.127Z,8.50
2023-04-02T14:17:24.767Z,8.40
2023-04-02T14:20:10.784Z,8.00
2023-04-02T14:22:56.624Z,7.80
2023-04-02T14:25:31.018Z,8.00
2023-04-02T14:28:09.877Z,8.10
2023-04-02T14:30:54.925Z,8.20
2023-04-02T14:33:49.245Z,8.50
2023-04-02T14:36:35.123Z,8.30
2023-04-02T14:39:14.061Z,7.70
2023-04-02T14:41:58.108Z,7.80
2023-04-02T14:44:30.234Z,8.10
2023-04-02T14:47:08.560Z,8.00
2023-04-02T14:49:40.014Z,7.80
2023-04-02T14:52:16.107Z,7.90
2023-04-02T14:54:54.480Z,7.90
2023-04-02T14:57:25.278Z,7.70
2023-04-02T15:00:01.338Z,7.80
2023-04-02T15:02:45.645Z,7.70
2023-04-02T15:05:49.612Z,7.70
2023-04-02T15:08:19.671Z,7.50
2023-04-02T15:11:17.948Z,7.20
2023-04-02T15:14:05.336Z,7.10
2023-04-02T15:16:33.280Z,7.00
2023-04-02T15:19:01.238Z,6.90
2023-04-02T15:22:06.967Z,6.90
2023-04-02T15:25:09.877Z,6.90
2023-04-02T15:28:08.419Z,6.80
2023-04-02T15:30:36.871Z,6.80
2023-04-02T15:33:32.988Z,6.70
2023-04-02T15:36:18.482Z,6.70
2023-04-02T15:38:49.086Z,6.60
2023-04-02T15:41:32.398Z,6.60
2023-04-02T15:44:13.183Z,6.60
2023-04-02T15:47:11.817Z,6.60
2023-04-02T15:49:57.057Z,6.70
2023-04-02T15:52:51.779Z,6.70
2023-04-02T15:55:51.520Z,6.70
2023-04-02T15:58:44.555Z,6.50
2023-04-02T16:01:34.216Z,6.20
2023-04-02T16:04:24.588Z,5.90
2023-04-02T16:07:15.694Z,5.90
2023-04-02T16:09:45.691Z,5.90
2023-04-02T16:12:16.847Z,5.80
2023-04-02T16:14:46.779Z,5.80
2023-04-02T16:17:31.529Z,5.80
2023-04-02T16:20:18.948Z,5.70
2023-04-02T16:23:00.002Z,5.70
2023-04-02T16:25:29.579Z,5.70
2023-04-02T16:28:12.141Z,5.60
2023-04-02T16:30:55.868Z,5.60
2023-04-02T16:49:44.539Z,5.30
2023-04-02T16:52:40.932Z,5.20
2023-04-02T16:55:32.875Z,5.10
2023-04-02T16:58:37.581Z,5.10
2023-04-02T17:01:15.600Z,5.00
2023-04-02T17:04:21.085Z,4.90
2023-04-02T17:07:14.527Z,4.80
2023-04-02T17:09:51.570Z,4.80
2023-04-02T17:12:30.586Z,4.70
2023-04-02T17:15:09.305Z,4.70
2023-04-02T17:17:41.681Z,4.60
2023-04-02T17:20:17.478Z,4.50
2023-04-02T17:22:44.480Z,4.50
2023-04-02T17:25:22.686Z,4.40
2023-04-02T17:27:53.739Z,4.40
2023-04-02T17:30:37.268Z,4.30
2023-04-02T17:33:18.648Z,4.20
2023-04-02T17:36:00.684Z,4.20
2023-04-02T17:38:47.249Z,4.10
2023-04-02T17:41:29.285Z,4.10
2023-04-02T17:43:59.125Z,4.00
2023-04-02T17:46:35.093Z,3.90
2023-04-02T17:49:31.686Z,3.90
2023-04-02T17:52:26.290Z,3.90
2023-04-02T17:55:22.005Z,3.80
2023-04-02T17:58:09.652Z,3.70
2023-04-02T18:01:14.087Z,3.60
2023-04-02T18:03:59.028Z,3.60
2023-04-02T18:06:39.420Z,3.50
2023-04-02T18:09:33.014Z,3.40
2023-04-02T18:12:18.019Z,3.30
2023-04-02T18:15:06.057Z,3.20
2023-04-02T18:17:36.044Z,3.20
2023-04-02T18:20:09.075Z,3.00
2023-04-02T18:22:43.739Z,3.00
2023-04-02T18:25:24.616Z,2.90
2023-04-02T18:28:16.351Z,2.90
2023-04-02T18:31:09.410Z,2.80
2023-04-02T18:34:02.917Z,2.70
2023-04-02T18:36:51.915Z,2.70
2023-04-02T18:39:38.424Z,2.60
2023-04-02T18:42:05.267Z,2.60
2023-04-02T18:44:38.774Z,2.60
2023-04-02T18:47:37.100Z,2.60
2023-04-02T18:50:31.824Z,2.60
2023-04-02T18:52:58.570Z,2.60
2023-04-02T18:55:28.772Z,2.50
2023-04-02T18:58:00.801Z,2.40
2023-04-02T19:00:34.407Z,2.40
2023-04-02T19:03:17.852Z,2.30
2023-04-02T19:05:53.968Z,2.20
2023-04-02T19:08:31.148Z,2.10
2023-04-02T19:11:06.879Z,2.00
2023-04-02T19:13:33.795Z,1.90
2023-04-02T19:16:34.740Z,1.80
2023-04-02T19:19:13.002Z,1.70
2023-04-02T19:21:45.586Z,1.60
2023-04-02T19:24:36.244Z,1.60
2023-04-02T19:27:15.486Z,1.50
2023-04-02T19:29:49.620Z,1.40
2023-04-02T19:32:22.146Z,1.40
2023-04-02T19:35:05.493Z,1.30
2023-04-02T19:37:43.925Z,1.20
2023-04-02T19:40:24.471Z,1.20
2023-04-02T19:42:52.547Z,1.10
2023-04-02T19:45:39.715Z,1.00
2023-04-02T19:48:20.093Z,1.00
2023-04-02T19:50:47.877Z,0.90
2023-04-02T19:53:14.924Z,0.90
2023-04-02T19:55:42.618Z,0.80
2023-04-02T19:58:30.380Z,0.80
2023-04-02T20:00:57.856Z,0.70
2023-04-02T20:03:24.906Z,0.60
2023-04-02T20:05:52.030Z,0.50
2023-04-02T20:08:18.807Z,0.50
2023-04-02T20:10:45.998Z,0.40
2023-04-02T20:13:12.897Z,0.40
2023-04-02T20:15:41.047Z,0.30
2023-04-02T20:18:09.355Z,0.30
2023-04-02T20:20:37.032Z,0.30
2023-04-02T20:23:03.939Z,0.20
2023-04-02T20:25:30.735Z,0.20
2023-04-02T20:27:57.684Z,0.20
2023-04-02T20:30:24.570Z,0.10
2023-04-02T20:32:51.485Z,0.10
2023-04-02T20:35:18.431Z,0.00
2023-04-02T20:37:45.695Z,0.00
2023-04-02T20:40:12.966Z,0.00
2023-04-02T20:42:39.792Z,0.00
2023-04-02T20:45:08.419Z,-0.10
2023-04-02T20:47:35.217Z,-0.10
2023-04-02T20:50:02.264Z,-0.10
2023-04-02T20:52:30.270Z,-0.20
2023-04-02T20:54:57.430Z,-0.20
2023-04-02T20:57:26.112Z,-0.30
2023-04-02T20:59:54.556Z,-0.30
2023-04-02T21:02:23.202Z,-0.30
2023-04-02T21:04:50.048Z,-0.30
2023-04-02T21:07:16.889Z,-0.40
2023-04-02T21:09:43.681Z,-0.40
2023-04-02T21:12:11.479Z,-0.40
2023-04-02T21:14:39.868Z,-0.40
2023-04-02T21:17:07.532Z,-0.50
2023-04-02T21:19:34.940Z,-0.50
2023-04-02T21:22:02.526Z,-0.50
2023-04-02T21:24:29.367Z,-0.50
2023-04-02T21:27:50.495Z,-0.60
2023-04-02T21:37:31.665Z,-0.70
2023-04-02T21:39:58.455Z,-0.80
2023-04-02T21:42:25.887Z,-0.80
2023-04-02T21:44:53.313Z,-0.80
2023-04-02T21:47:20.062Z,-0.80
2023-04-02T21:49:46.864Z,-0.80
2023-04-02T21:52:14.017Z,-0.80
2023-04-02T21:54:40.798Z,-0.80
2023-04-02T21:57:07.616Z,-0.80
2023-04-02T21:59:34.627Z,-0.90
2023-04-02T22:02:01.473Z,-0.90
2023-04-02T22:04:30.673Z,-0.90
2023-04-02T22:06:57.698Z,-0.90
2023-04-02T22:09:25.664Z,-0.90
2023-04-02T22:11:54.766Z,-0.90
2023-04-02T22:14:22.348Z,-0.90
2023-04-02T22:16:49.287Z,-1.00
2023-04-02T22:19:17.223Z,-1.00
2023-04-02T22:21:44.475Z,-1.00
2023-04-02T22:24:13.998Z,-1.00
2023-04-02T22:26:41.207Z,-1.00
2023-04-02T22:29:08.147Z,-1.10
2023-04-02T22:31:35.385Z,-1.10
2023-04-02T22:34:03.513Z,-1.10
2023-04-02T22:36:30.855Z,-1.10
2023-04-02T22:38:59.180Z,-1.10
2023-04-02T22:41:28.032Z,-1.10
2023-04-02T22:43:56.174Z,-1.10
2023-04-02T22:46:24.576Z,-1.20
2023-04-02T22:48:51.716Z,-1.20
2023-04-02T22:51:20.248Z,-1.20
2023-04-02T22:53:47.669Z,-1.20
2023-04-02T22:56:20.089Z,-1.20
2023-04-02T22:58:46.936Z,-1.30
2023-04-02T23:01:22.197Z,-1.30
2023-04-02T23:03:49.135Z,-1.30
2023-04-02T23:06:19.473Z,-1.30
2023-04-02T23:08:46.589Z,-1.30
2023-04-02T23:11:19.618Z,-1.30
2023-04-02T23:13:48.249Z,-1.30
2023-04-02T23:16:16.026Z,-1.30
2023-04-02T23:18:47.205Z,-1.40
2023-04-02T23:21:14.582Z,-1.40
2023-04-02T23:23:41.398Z,-1.40
2023-04-02T23:26:16.482Z,-1.50
2023-04-02T23:28:43.651Z,-1.50
2023-04-02T23:31:16.312Z,-1.50
2023-04-02T23:33:43.528Z,-1.50
2023-04-02T23:36:33.459Z,-1.50
2023-04-02T23:41:37.860Z,-1.50
2023-04-02T23:44:05.774Z,-1.50
2023-04-02T23:46:33.276Z,-1.60
2023-04-02T23:49:00.927Z,-1.60
2023-04-02T23:51:29.596Z,-1.60
2023-04-02T23:53:56.786Z,-1.60
2023-04-02T23:56:24.345Z,-1.70
2023-04-02T23:58:51.290Z,-1.60
